Time;durP1;ratioP1;P1;durP2;ratioP2;P2;SDS_P1;SDS_P2;PMS_P1;PMS_P2;Temp;Humidity;BMP_temperature;BMP_pressure;BME280_temperature;BME280_humidity;BME280_pressure;Samples;Min_cycle;Max_cycle;Signal;HPM_P1;HPM_P2
2023/08/23 00:05:26;;;;;;;9.27;3.38;;;31.70;27.70;;;;;;20838337;28;20049;-57
2023/08/23 00:15:27;;;;;;;6.78;3.60;;;31.70;27.90;;;;;;20836210;28;20084;-56
2023/08/23 00:25:28;;;;;;;5.97;3.10;;;31.60;28.00;;;;;;20836780;28;20095;-57
2023/08/23 00:35:29;;;;;;;8.07;3.33;;;31.50;28.30;;;;;;20836798;28;20057;-57
2023/08/23 00:45:30;;;;;;;7.28;2.65;;;31.40;28.40;;;;;;20835090;28;20426;-59
2023/08/23 00:55:31;;;;;;;9.93;3.13;;;31.40;28.50;;;;;;20834287;28;20465;-57
2023/08/23 01:05:53;;;;;;;9.52;3.42;;;31.40;28.70;;;;;;20833284;28;20080;-57
2023/08/23 01:15:56;;;;;;;9.40;4.00;;;31.40;28.90;;;;;;20832996;28;20050;-57
2023/08/23 01:25:57;;;;;;;6.28;3.25;;;31.20;29.20;;;;;;20832331;28;20137;-57
2023/08/23 01:36:18;;;;;;;5.53;2.92;;;31.10;29.50;;;;;;20832667;28;20049;-57
2023/08/23 01:46:19;;;;;;;7.43;3.67;;;31.10;29.60;;;;;;20829919;28;20056;-57
2023/08/23 01:56:19;;;;;;;5.30;3.05;;;30.90;30.10;;;;;;20849059;28;20491;-58
2023/08/23 02:06:20;;;;;;;8.60;3.03;;;30.80;30.40;;;;;;20856525;28;20103;-57
2023/08/23 02:16:21;;;;;;;8.18;3.10;;;30.80;30.50;;;;;;20856430;28;20495;-57
2023/08/23 02:26:21;;;;;;;5.82;3.25;;;30.60;30.60;;;;;;20857264;28;20077;-57
2023/08/23 02:36:22;;;;;;;4.55;2.92;;;30.50;30.60;;;;;;20855446;28;20057;-56
2023/08/23 02:46:23;;;;;;;6.75;2.90;;;30.40;30.70;;;;;;20856554;28;20367;-57
2023/08/23 02:56:24;;;;;;;8.10;3.08;;;30.30;30.90;;;;;;20856195;28;20045;-57
2023/08/23 03:06:26;;;;;;;5.30;3.00;;;30.30;30.90;;;;;;20845951;28;20045;-57
2023/08/23 03:16:27;;;;;;;6.13;3.40;;;30.30;31.00;;;;;;20840995;28;20095;-57
2023/08/23 03:26:27;;;;;;;5.65;2.90;;;30.10;31.50;;;;;;20841987;28;20546;-57
2023/08/23 03:36:28;;;;;;;6.30;3.00;;;30.10;31.80;;;;;;20839472;28;20057;-58
2023/08/23 03:46:29;;;;;;;9.18;3.45;;;30.00;32.10;;;;;;20839964;28;20050;-57
2023/08/23 03:56:30;;;;;;;8.55;3.00;;;29.90;32.20;;;;;;20839459;28;20048;-57
2023/08/23 04:06:30;;;;;;;8.32;3.38;;;29.80;32.20;;;;;;20836993;28;20048;-57
2023/08/23 04:16:31;;;;;;;6.07;3.17;;;29.70;32.00;;;;;;20837336;28;20487;-57
2023/08/23 04:26:32;;;;;;;8.40;3.63;;;29.70;31.90;;;;;;20836858;28;20448;-58
2023/08/23 04:36:33;;;;;;;6.63;3.13;;;29.60;31.90;;;;;;20836908;28;20050;-57
2023/08/23 04:46:34;;;;;;;6.07;3.55;;;29.60;31.90;;;;;;20835125;28;20041;-57
2023/08/23 04:56:35;;;;;;;7.30;3.33;;;29.50;32.00;;;;;;20833135;28;20041;-58
2023/08/23 05:06:36;;;;;;;7.55;3.22;;;29.30;32.10;;;;;;20833664;28;20045;-57
2023/08/23 05:16:37;;;;;;;8.70;4.13;;;29.30;32.20;;;;;;20832876;28;20060;-57
2023/08/23 05:26:38;;;;;;;9.80;3.33;;;29.10;32.40;;;;;;20830338;28;20045;-56
2023/08/23 05:36:39;;;;;;;12.20;4.10;;;29.10;32.30;;;;;;20830524;28;20486;-57
2023/08/23 05:46:39;;;;;;;7.38;3.80;;;28.70;33.70;;;;;;20831195;28;20045;-57
2023/08/23 05:56:40;;;;;;;13.45;3.53;;;28.30;34.30;;;;;;20830878;28;20459;-58
2023/08/23 06:06:41;;;;;;;6.72;3.60;;;28.50;33.50;;;;;;20830390;28;20041;-57
2023/08/23 06:16:42;;;;;;;8.18;3.60;;;28.60;33.00;;;;;;20830238;28;20053;-57
2023/08/23 06:26:44;;;;;;;11.20;3.88;;;28.70;33.00;;;;;;20828419;28;20041;-57
2023/08/23 06:36:45;;;;;;;12.05;4.20;;;28.70;32.60;;;;;;20829700;28;20065;-58
2023/08/23 06:46:46;;;;;;;12.13;4.10;;;28.40;34.20;;;;;;20844308;28;20052;-58
2023/08/23 06:56:46;;;;;;;11.63;4.43;;;28.20;34.20;;;;;;20841897;28;20038;-57
2023/08/23 07:06:47;;;;;;;;;;;28.30;34.20;;;;;;20841874;28;20129;-58
2023/08/23 07:16:48;;;;;;;10.57;3.43;;;28.50;33.80;;;;;;20840996;28;19920;-57
2023/08/23 07:26:49;;;;;;;7.75;3.38;;;29.10;32.00;;;;;;20840076;28;20451;-57
2023/08/23 07:36:49;;;;;;;5.80;3.00;;;29.80;30.70;;;;;;20839971;28;20065;-57
2023/08/23 07:46:50;;;;;;;7.75;3.33;;;30.10;30.30;;;;;;20839717;28;20452;-57
2023/08/23 07:56:51;;;;;;;11.05;3.70;;;30.40;29.80;;;;;;20838024;28;20135;-57
2023/08/23 08:06:51;;;;;;;10.18;3.67;;;30.80;29.50;;;;;;20836970;28;20046;-57
2023/08/23 08:16:52;;;;;;;6.13;3.13;;;31.00;29.10;;;;;;20863204;28;20410;-62
2023/08/23 08:26:53;;;;;;;6.90;2.92;;;31.20;29.40;;;;;;20909843;28;20041;-58
2023/08/23 08:36:54;;;;;;;10.40;3.40;;;31.40;29.20;;;;;;20916726;28;20109;-58
2023/08/23 08:46:55;;;;;;;6.88;3.03;;;31.60;28.40;;;;;;20917397;28;20490;-57
2023/08/23 08:56:57;;;;;;;5.00;2.53;;;31.80;28.10;;;;;;20916816;28;20140;-58
2023/08/23 09:06:57;;;;;;;6.25;3.00;;;32.10;27.10;;;;;;20914757;28;20144;-57
2023/08/23 09:16:58;;;;;;;8.25;3.38;;;32.20;26.70;;;;;;20915483;28;20073;-58
2023/08/23 09:27:00;;;;;;;7.75;3.47;;;32.50;25.30;;;;;;20913743;28;20048;-57
2023/08/23 09:37:08;;;;;;;10.02;3.25;;;32.70;25.00;;;;;;20912057;28;20156;-57
2023/08/23 09:47:18;;;;;;;9.20;3.55;;;32.90;25.10;;;;;;20912723;28;20072;-58
2023/08/23 09:57:20;;;;;;;7.03;4.32;;;32.90;24.60;;;;;;20912794;28;20394;-59
2023/08/23 10:07:23;;;;;;;7.80;4.78;;;33.20;22.60;;;;;;20911766;28;20115;-58
2023/08/23 10:17:24;;;;;;;7.30;3.78;;;33.40;21.80;;;;;;20923144;28;20049;-58
2023/08/23 10:27:25;;;;;;;9.40;4.25;;;33.40;22.40;;;;;;20927759;28;20505;-58
2023/08/23 10:37:26;;;;;;;9.90;4.40;;;33.50;23.10;;;;;;20927563;28;20128;-57
2023/08/23 10:47:27;;;;;;;10.52;4.43;;;33.70;22.40;;;;;;20925245;28;20497;-59
2023/08/23 10:57:28;;;;;;;11.80;5.13;;;33.70;21.90;;;;;;20925727;28;20072;-59
2023/08/23 11:07:28;;;;;;;6.35;3.95;;;33.80;21.90;;;;;;20924703;28;20052;-58
2023/08/23 11:17:29;;;;;;;6.20;3.67;;;34.00;21.20;;;;;;20922594;28;20048;-57
2023/08/23 11:27:30;;;;;;;7.18;4.32;;;34.30;20.80;;;;;;20921851;28;20514;-57
2023/08/23 11:37:31;;;;;;;9.82;3.80;;;34.60;21.30;;;;;;20922478;28;20074;-58
2023/08/23 11:47:34;;;;;;;8.85;3.78;;;35.00;21.00;;;;;;20921012;28;20402;-58
2023/08/23 11:57:35;;;;;;;6.63;3.70;;;34.90;20.80;;;;;;20920032;28;20060;-56
2023/08/23 12:07:36;;;;;;;8.57;3.45;;;35.10;20.80;;;;;;20920146;28;20057;-57
2023/08/23 12:17:37;;;;;;;6.00;3.38;;;35.30;20.70;;;;;;20918949;28;20049;-57
2023/08/23 12:27:38;;;;;;;6.55;3.90;;;35.60;20.00;;;;;;20917947;28;20170;-56
2023/08/23 12:37:39;;;;;;;4.75;4.10;;;35.90;20.00;;;;;;20917381;28;20053;-57
2023/08/23 12:47:40;;;;;;;5.43;3.88;;;35.90;20.00;;;;;;20917382;28;20048;-57
2023/08/23 12:57:41;;;;;;;9.45;3.78;;;36.00;19.90;;;;;;20915335;28;20094;-58
2023/08/23 13:07:42;;;;;;;8.55;3.60;;;36.50;19.50;;;;;;20916033;28;20478;-57
2023/08/23 13:17:43;;;;;;;8.20;3.38;;;36.40;20.10;;;;;;20913967;28;20044;-59
2023/08/23 13:27:44;;;;;;;5.95;3.50;;;36.50;20.30;;;;;;20913449;28;20080;-58
2023/08/23 13:37:45;;;;;;;8.43;4.68;;;37.00;19.80;;;;;;20913796;28;20045;-57
2023/08/23 13:47:45;;;;;;;6.13;3.50;;;37.00;19.80;;;;;;20911726;28;20136;-57
2023/08/23 13:57:46;;;;;;;6.93;3.70;;;37.00;19.80;;;;;;20913150;28;20048;-57
2023/08/23 14:07:47;;;;;;;7.67;3.00;;;37.10;19.70;;;;;;20911664;28;20298;-57
2023/08/23 14:17:48;;;;;;;6.30;3.95;;;37.10;19.70;;;;;;20912568;28;20282;-59
2023/08/23 14:27:48;;;;;;;8.60;4.00;;;37.20;19.90;;;;;;20911787;28;20410;-57
2023/08/23 14:37:49;;;;;;;3.75;3.22;;;37.30;19.60;;;;;;20911536;28;20103;-56
2023/08/23 14:47:50;;;;;;;5.22;3.38;;;37.30;19.20;;;;;;20911090;28;20037;-57
2023/08/23 14:57:51;;;;;;;7.47;3.05;;;37.40;18.90;;;;;;20913093;28;20053;-57
2023/08/23 15:07:52;;;;;;;6.00;3.25;;;37.50;18.30;;;;;;20925524;28;20048;-57
2023/08/23 15:17:52;;;;;;;6.63;3.33;;;37.50;18.10;;;;;;20924981;28;20072;-57
2023/08/23 15:27:53;;;;;;;5.22;3.42;;;37.50;17.80;;;;;;20923744;28;20060;-57
2023/08/23 15:37:54;;;;;;;6.88;3.58;;;37.50;17.90;;;;;;20921703;28;20044;-56
2023/08/23 15:47:55;;;;;;;4.60;3.28;;;37.50;17.70;;;;;;20922282;28;20041;-57
2023/08/23 15:57:55;;;;;;;6.55;3.47;;;37.50;17.80;;;;;;20920906;28;20094;-59
2023/08/23 16:07:56;;;;;;;7.00;3.40;;;37.60;17.60;;;;;;20921891;28;20053;-58
2023/08/23 16:17:57;;;;;;;7.75;3.22;;;37.60;17.80;;;;;;20919359;28;20282;-60
2023/08/23 16:27:58;;;;;;;7.78;3.28;;;37.60;18.10;;;;;;20918643;28;20064;-58
2023/08/23 16:37:58;;;;;;;5.10;3.47;;;37.50;18.70;;;;;;20917370;28;20049;-57
2023/08/23 16:47:59;;;;;;;6.18;4.30;;;37.50;18.60;;;;;;20916686;28;20047;-58
2023/08/23 16:58:00;;;;;;;5.55;3.05;;;37.40;18.70;;;;;;20915095;28;20053;-58
2023/08/23 17:08:01;;;;;;;6.78;3.25;;;37.40;18.80;;;;;;20914654;28;20501;-58
2023/08/23 17:18:02;;;;;;;8.55;3.10;;;37.30;18.90;;;;;;20915384;28;20494;-57
2023/08/23 17:28:03;;;;;;;5.43;3.25;;;37.20;19.20;;;;;;20913720;28;20068;-57
2023/08/23 17:38:04;;;;;;;10.32;4.00;;;37.20;19.20;;;;;;20913165;28;20047;-59
2023/08/23 17:48:05;;;;;;;7.70;3.38;;;37.10;19.30;;;;;;20913992;28;20041;-57
2023/08/23 17:58:06;;;;;;;6.35;3.75;;;37.00;19.20;;;;;;20913094;28;20200;-57
2023/08/23 18:08:06;;;;;;;5.60;3.80;;;36.80;19.30;;;;;;20912748;28;20048;-58
2023/08/23 18:18:07;;;;;;;13.15;4.57;;;36.60;19.00;;;;;;20912197;28;20052;-57
2023/08/23 18:28:08;;;;;;;8.50;4.60;;;36.40;19.40;;;;;;20910545;28;20122;-57
2023/08/23 18:38:09;;;;;;;6.95;4.80;;;36.30;19.00;;;;;;20922006;28;20052;-56
2023/08/23 18:48:10;;;;;;;10.57;4.57;;;36.10;19.30;;;;;;20926845;28;20040;-58
2023/08/23 18:58:11;;;;;;;8.05;4.88;;;35.80;19.30;;;;;;20925901;28;20049;-57
2023/08/23 19:08:13;;;;;;;9.65;5.00;;;35.70;19.20;;;;;;20923825;28;20051;-57
2023/08/23 19:18:14;;;;;;;9.80;4.75;;;35.50;19.30;;;;;;20924480;28;20509;-57
2023/08/23 19:28:14;;;;;;;7.88;4.57;;;35.40;19.50;;;;;;20923429;28;20057;-57
2023/08/23 19:38:15;;;;;;;13.90;5.68;;;35.20;19.50;;;;;;20923353;28;20048;-56
2023/08/23 19:48:16;;;;;;;15.25;8.02;;;35.00;19.90;;;;;;20920552;28;20127;-56
2023/08/23 19:58:18;;;;;;;12.63;6.10;;;34.80;20.20;;;;;;20921274;28;20045;-57
2023/08/23 20:08:19;;;;;;;7.90;5.97;;;34.50;20.70;;;;;;20919740;28;20474;-58
2023/08/23 20:18:21;;;;;;;13.73;6.35;;;34.30;20.60;;;;;;20920181;28;20045;-60
2023/08/23 20:28:21;;;;;;;14.32;6.85;;;34.20;20.20;;;;;;20919010;28;20583;-58
2023/08/23 20:38:22;;;;;;;12.55;6.25;;;34.10;20.20;;;;;;20918670;28;20076;-57
2023/08/23 20:48:23;;;;;;;11.27;5.95;;;34.00;20.30;;;;;;20917630;28;20048;-57
2023/08/23 20:58:23;;;;;;;13.65;5.93;;;33.90;20.00;;;;;;20915857;28;20091;-57
2023/08/23 21:08:24;;;;;;;8.75;6.60;;;33.70;20.20;;;;;;20916145;28;20045;-57
2023/08/23 21:18:25;;;;;;;11.05;6.25;;;33.60;20.50;;;;;;20915635;28;20395;-58
2023/08/23 21:28:26;;;;;;;11.60;6.68;;;33.40;20.90;;;;;;20914984;28;20068;-57
2023/08/23 21:38:27;;;;;;;15.02;8.13;;;33.30;20.90;;;;;;20914732;28;20125;-59
2023/08/23 21:48:28;;;;;;;9.13;6.60;;;33.10;20.70;;;;;;20912777;28;20136;-57
2023/08/23 21:58:31;;;;;;;10.48;6.00;;;33.10;21.00;;;;;;20912431;28;20045;-57
2023/08/23 22:08:37;;;;;;;11.90;5.57;;;32.90;21.40;;;;;;20916535;28;20522;-58
2023/08/23 22:28:58;;;;;;;16.00;5.82;;;32.60;21.50;;;;;;20928538;28;20061;-58
2023/08/23 22:38:58;;;;;;;10.68;5.88;;;32.50;21.90;;;;;;20928390;28;20077;-57
2023/08/23 22:48:59;;;;;;;9.85;5.50;;;32.40;21.80;;;;;;20927524;28;20045;-57
2023/08/23 22:59:00;;;;;;;11.05;6.15;;;32.20;22.10;;;;;;20927053;28;20045;-59
2023/08/23 23:09:01;;;;;;;9.85;5.88;;;32.10;22.10;;;;;;20924837;28;20123;-57
2023/08/23 23:19:02;;;;;;;7.30;5.50;;;32.00;22.30;;;;;;20922728;28;20045;-58
2023/08/23 23:29:03;;;;;;;11.57;5.45;;;31.90;22.40;;;;;;20923004;28;20045;-56
2023/08/23 23:39:04;;;;;;;8.07;5.00;;;31.80;22.50;;;;;;20923929;28;20521;-57
2023/08/23 23:49:05;;;;;;;9.00;4.90;;;31.60;22.70;;;;;;20923131;28;20040;-56
2023/08/23 23:59:07;;;;;;;11.43;5.75;;;31.60;22.90;;;;;;20922173;28;20060;-56
